Time;durP1;ratioP1;P1;durP2;ratioP2;P2;SDS_P1;SDS_P2;PMS_P1;PMS_P2;Temp;Humidity;BMP_temperature;BMP_pressure;BME280_temperature;BME280_humidity;BME280_pressure;Samples;Min_cycle;Max_cycle;Signal;HPM_P1;HPM_P2
2023/10/15 00:01:42;;;;;;;11.95;5.00;;;;;;;;;;10432981;28;20029;-80
2023/10/15 00:06:43;;;;;;;9.90;4.75;;;;;;;;;;10445667;28;20404;-82
2023/10/15 00:11:44;;;;;;;19.38;8.68;;;;;;;;;;10446236;28;20112;-83
2023/10/15 00:16:45;;;;;;;18.67;5.70;;;;;;;;;;10428167;28;20561;-81
2023/10/15 00:21:46;;;;;;;10.05;4.18;;;;;;;;;;10445825;28;20513;-81
2023/10/15 00:26:49;;;;;;;10.55;4.78;;;;;;;;;;10446031;28;20025;-80
2023/10/15 00:31:50;;;;;;;16.40;5.90;;;;;;;;;;10444466;28;20074;-81
2023/10/15 00:36:51;;;;;;;9.88;4.20;;;;;;;;;;10444214;28;20043;-80
2023/10/15 00:41:53;;;;;;;9.77;5.15;;;;;;;;;;10463464;22;20064;-81
2023/10/15 00:46:55;;;;;;;8.35;4.20;;;;;;;;;;10480170;28;20115;-83
2023/10/15 00:51:56;;;;;;;13.10;4.68;;;;;;;;;;10471222;28;20029;-80
2023/10/15 00:56:57;;;;;;;9.52;3.42;;;;;;;;;;10477684;28;20036;-80
2023/10/15 01:07:13;;;;;;;10.45;3.22;;;;;;;;;;10463522;28;20045;-81
2023/10/15 01:12:33;;;;;;;11.70;3.45;;;;;;;;;;10477077;28;20029;-81
2023/10/15 01:17:37;;;;;;;12.25;4.05;;;;;;;;;;10485147;28;20028;-80
2023/10/15 01:22:39;;;;;;;13.90;3.95;;;;;;;;;;10485743;28;20016;-81
2023/10/15 01:27:40;;;;;;;11.32;3.92;;;;;;;;;;10477800;28;20029;-83
2023/10/15 01:32:44;;;;;;;9.13;3.83;;;;;;;;;;10477882;28;20036;-81
2023/10/15 01:38:27;;;;;;;10.32;3.33;;;;;;;;;;10484527;28;20430;-80
2023/10/15 01:43:20;;;;;;;11.35;3.67;;;;;;;;;;10482174;28;20056;-80
2023/10/15 01:48:24;;;;;;;12.65;3.97;;;;;;;;;;10474511;28;20104;-80
2023/10/15 01:53:26;;;;;;;12.10;3.97;;;;;;;;;;10479616;28;20040;-80
2023/10/15 01:58:31;;;;;;;14.97;4.50;;;;;;;;;;10479692;28;20036;-80
2023/10/15 02:03:32;;;;;;;13.00;3.77;;;;;;;;;;10474098;28;20124;-80
2023/10/15 02:08:36;;;;;;;15.03;5.00;;;;;;;;;;10479680;28;20036;-79
2023/10/15 02:13:40;;;;;;;14.27;4.37;;;;;;;;;;10484625;28;20036;-80
2023/10/15 02:18:44;;;;;;;14.20;4.07;;;;;;;;;;10483977;28;20052;-80
2023/10/15 02:23:50;;;;;;;13.47;4.57;;;;;;;;;;10483923;28;20036;-81
2023/10/15 02:28:53;;;;;;;;;;;;;;;;;;10484277;28;20678;-80
2023/10/15 02:33:55;;;;;;;12.37;4.23;;;;;;;;;;10472309;28;19921;-81
2023/10/15 02:38:56;;;;;;;11.00;4.00;;;;;;;;;;10483627;28;20020;-80
2023/10/15 02:43:57;;;;;;;8.60;3.77;;;;;;;;;;10474400;28;20489;-79
2023/10/15 02:48:58;;;;;;;11.10;3.40;;;;;;;;;;10476617;28;20033;-80
2023/10/15 02:54:18;;;;;;;8.50;2.80;;;;;;;;;;10473519;28;20037;-81
2023/10/15 02:59:19;;;;;;;8.17;3.03;;;;;;;;;;10466922;28;20063;-79
2023/10/15 03:04:32;;;;;;;7.90;2.90;;;;;;;;;;10473161;28;20500;-80
2023/10/15 03:09:33;;;;;;;17.60;2.90;;;;;;;;;;10485251;28;20024;-80
2023/10/15 03:14:41;;;;;;;9.77;2.70;;;;;;;;;;10489319;28;20145;-79
2023/10/15 03:19:43;;;;;;;10.73;2.63;;;;;;;;;;10489383;28;20071;-80
2023/10/15 03:24:44;;;;;;;7.67;2.40;;;;;;;;;;10489883;28;20037;-80
2023/10/15 03:29:45;;;;;;;11.20;2.70;;;;;;;;;;10489619;28;20036;-81
2023/10/15 03:34:59;;;;;;;9.30;2.40;;;;;;;;;;10489094;28;20083;-80
2023/10/15 03:40:10;;;;;;;10.47;3.17;;;;;;;;;;10487698;28;20028;-79
2023/10/15 03:45:16;;;;;;;7.43;2.80;;;;;;;;;;10483633;28;20063;-79
2023/10/15 03:50:18;;;;;;;15.90;3.20;;;;;;;;;;10479361;28;20025;-79
2023/10/15 03:55:19;;;;;;;8.87;2.70;;;;;;;;;;10487054;28;20430;-80
2023/10/15 04:00:35;;;;;;;9.87;3.20;;;;;;;;;;10487452;28;20021;-81
2023/10/15 04:05:36;;;;;;;7.53;2.97;;;;;;;;;;10477304;28;20035;-80
2023/10/15 04:10:38;;;;;;;8.27;2.57;;;;;;;;;;10486349;28;20035;-80
2023/10/15 04:15:39;;;;;;;10.13;2.37;;;;;;;;;;10484243;28;20042;-79
2023/10/15 04:20:42;;;;;;;12.43;2.97;;;;;;;;;;10477187;28;20029;-82
2023/10/15 04:25:47;;;;;;;9.67;2.77;;;;;;;;;;10485458;28;20039;-80
2023/10/15 04:30:48;;;;;;;6.90;1.97;;;;;;;;;;10486747;28;20029;-80
2023/10/15 04:35:51;;;;;;;8.80;2.67;;;;;;;;;;10476865;28;20600;-80
2023/10/15 04:45:54;;;;;;;8.80;3.30;;;;;;;;;;10449880;28;20045;-80
2023/10/15 04:51:02;;;;;;;7.73;3.10;;;;;;;;;;10438224;28;20025;-81
2023/10/15 04:56:04;;;;;;;14.03;3.37;;;;;;;;;;10441517;28;20401;-80
2023/10/15 05:01:06;;;;;;;7.87;3.07;;;;;;;;;;10426634;28;20025;-81
2023/10/15 05:06:10;;;;;;;8.80;3.20;;;;;;;;;;10442459;28;20021;-80
2023/10/15 05:11:11;;;;;;;11.53;3.80;;;;;;;;;;10444183;28;20060;-81
2023/10/15 05:16:14;;;;;;;9.80;4.33;;;;;;;;;;10444347;28;20512;-82
2023/10/15 05:21:15;;;;;;;8.07;3.10;;;;;;;;;;10443713;28;20111;-81
2023/10/15 05:26:16;;;;;;;9.40;2.67;;;;;;;;;;10444177;28;20537;-81
2023/10/15 05:31:20;;;;;;;8.97;3.33;;;;;;;;;;10443175;28;20086;-80
2023/10/15 05:36:27;;;;;;;7.67;2.67;;;;;;;;;;10417469;28;20894;-81
2023/10/15 05:41:31;;;;;;;13.20;2.70;;;;;;;;;;10439494;28;20029;-81
2023/10/15 05:46:32;;;;;;;10.13;3.20;;;;;;;;;;10473569;28;20071;-81
2023/10/15 05:51:33;;;;;;;12.17;3.50;;;;;;;;;;10484892;28;20024;-81
2023/10/15 05:56:34;;;;;;;8.97;4.23;;;;;;;;;;10484622;28;20076;-81
2023/10/15 06:01:35;;;;;;;14.87;4.60;;;;;;;;;;10485123;28;20025;-81
2023/10/15 06:06:36;;;;;;;9.23;2.63;;;;;;;;;;10483996;28;20388;-81
2023/10/15 06:11:38;;;;;;;6.77;2.87;;;;;;;;;;10484453;28;20032;-80
2023/10/15 06:16:39;;;;;;;10.30;2.67;;;;;;;;;;10484510;28;20021;-81
2023/10/15 06:21:40;;;;;;;10.63;2.70;;;;;;;;;;10464795;28;20036;-81
2023/10/15 06:26:41;;;;;;;8.97;2.10;;;;;;;;;;10464682;28;20579;-81
2023/10/15 06:31:42;;;;;;;9.97;1.87;;;;;;;;;;10476002;28;20060;-80
2023/10/15 06:36:44;;;;;;;7.50;2.03;;;;;;;;;;10468607;28;20028;-82
2023/10/15 06:41:45;;;;;;;8.20;2.00;;;;;;;;;;10472540;28;20111;-81
2023/10/15 06:46:46;;;;;;;13.47;2.30;;;;;;;;;;10468241;28;20057;-81
2023/10/15 06:51:48;;;;;;;6.23;2.00;;;;;;;;;;10463654;28;20040;-82
2023/10/15 06:56:49;;;;;;;10.53;2.00;;;;;;;;;;10453171;28;20048;-81
2023/10/15 07:01:51;;;;;;;7.80;1.70;;;;;;;;;;10468159;28;20035;-82
2023/10/15 07:06:52;;;;;;;5.47;1.90;;;;;;;;;;10485227;28;20051;-81
2023/10/15 07:11:53;;;;;;;10.37;2.30;;;;;;;;;;10467187;28;20810;-82
2023/10/15 07:16:54;;;;;;;10.97;2.60;;;;;;;;;;10479736;28;20031;-82
2023/10/15 07:21:56;;;;;;;12.90;2.43;;;;;;;;;;10487004;28;20036;-81
2023/10/15 07:26:57;;;;;;;7.73;2.10;;;;;;;;;;10483253;28;20037;-82
2023/10/15 07:31:59;;;;;;;7.53;1.83;;;;;;;;;;10472038;28;20056;-81
2023/10/15 07:37:00;;;;;;;6.47;1.93;;;;;;;;;;10483509;28;20040;-81
2023/10/15 07:42:02;;;;;;;7.27;1.80;;;;;;;;;;10485308;28;20029;-82
2023/10/15 07:47:04;;;;;;;6.53;2.20;;;;;;;;;;10485924;28;20060;-82
2023/10/15 07:52:05;;;;;;;7.37;1.97;;;;;;;;;;10475326;28;20093;-81
2023/10/15 07:57:09;;;;;;;12.57;2.53;;;;;;;;;;10483330;28;20682;-81
2023/10/15 08:02:12;;;;;;;10.63;2.45;;;;;;;;;;10476016;28;20031;-80
2023/10/15 08:07:13;;;;;;;10.52;2.15;;;;;;;;;;10481474;28;20104;-82
2023/10/15 08:12:14;;;;;;;11.45;2.25;;;;;;;;;;10480090;28;20029;-82
2023/10/15 08:17:15;;;;;;;10.68;2.33;;;;;;;;;;10483874;28;20024;-81
2023/10/15 08:22:16;;;;;;;6.90;1.60;;;;;;;;;;10484956;28;20580;-82
2023/10/15 08:27:17;;;;;;;7.95;3.03;;;;;;;;;;10486302;28;20070;-82
2023/10/15 08:38:00;;;;;;;5.88;1.35;;;;;;;;;;10473669;28;20036;-82
2023/10/15 08:43:16;;;;;;;9.52;1.75;;;;;;;;;;10474403;28;20097;-83
2023/10/15 08:48:18;;;;;;;6.47;1.80;;;;;;;;;;10478630;28;20082;-81
2023/10/15 08:53:22;;;;;;;6.03;2.15;;;;;;;;;;10486004;28;20071;-82
2023/10/15 08:58:24;;;;;;;9.07;1.95;;;;;;;;;;10485524;28;20032;-82
2023/10/15 09:03:25;;;;;;;15.23;2.67;;;;;;;;;;10485695;28;20024;-81
2023/10/15 09:08:28;;;;;;;12.27;1.98;;;;;;;;;;10485866;28;20037;-82
2023/10/15 09:13:36;;;;;;;5.93;1.77;;;;;;;;;;10485616;28;20037;-81
2023/10/15 09:18:38;;;;;;;5.43;2.20;;;;;;;;;;10475331;28;20123;-81
2023/10/15 09:23:40;;;;;;;7.28;1.90;;;;;;;;;;10469146;28;20032;-83
2023/10/15 09:28:51;;;;;;;9.82;2.72;;;;;;;;;;10484540;28;20043;-84
2023/10/15 09:33:54;;;;;;;7.53;2.38;;;;;;;;;;10484970;28;20079;-82
2023/10/15 09:38:56;;;;;;;6.25;1.65;;;;;;;;;;10485012;28;20025;-81
2023/10/15 09:43:57;;;;;;;7.70;2.15;;;;;;;;;;10465678;28;20095;-82
2023/10/15 09:48:59;;;;;;;14.23;4.20;;;;;;;;;;10458912;28;20085;-84
2023/10/15 09:54:00;;;;;;;8.57;3.47;;;;;;;;;;10484164;28;20074;-82
2023/10/15 09:59:02;;;;;;;14.32;3.58;;;;;;;;;;10484525;28;20025;-83
2023/10/15 10:04:14;;;;;;;10.18;2.83;;;;;;;;;;10484266;28;20029;-82
2023/10/15 10:09:40;;;;;;;12.13;3.92;;;;;;;;;;10481881;28;20031;-82
2023/10/15 10:14:59;;;;;;;7.10;3.00;;;;;;;;;;10478836;28;20040;-83
2023/10/15 10:20:10;;;;;;;12.35;2.25;;;;;;;;;;10492541;28;20029;-82
2023/10/15 10:25:29;;;;;;;7.25;2.35;;;;;;;;;;10486894;28;20060;-82
2023/10/15 10:30:31;;;;;;;10.30;2.22;;;;;;;;;;10461449;28;20037;-83
2023/10/15 10:35:43;;;;;;;5.15;1.50;;;;;;;;;;10489276;28;20055;-81
2023/10/15 10:40:48;;;;;;;7.07;2.10;;;;;;;;;;10491532;28;20108;-83
2023/10/15 10:45:50;;;;;;;5.87;2.23;;;;;;;;;;10472451;28;20053;-82
2023/10/15 10:51:18;;;;;;;8.60;3.05;;;;;;;;;;10491414;28;20685;-82
2023/10/15 10:56:19;;;;;;;9.13;3.50;;;;;;;;;;10470471;28;20563;-82
2023/10/15 11:01:21;;;;;;;9.95;2.63;;;;;;;;;;10456939;28;20040;-82
2023/10/15 11:06:22;;;;;;;6.03;2.30;;;;;;;;;;10477754;28;20033;-81
2023/10/15 11:11:49;;;;;;;10.27;3.03;;;;;;;;;;10484614;28;20576;-82
2023/10/15 11:16:51;;;;;;;11.77;4.68;;;;;;;;;;10485637;28;20713;-81
2023/10/15 11:21:53;;;;;;;9.73;3.28;;;;;;;;;;10486925;28;20063;-80
2023/10/15 11:26:55;;;;;;;7.45;3.17;;;;;;;;;;10488568;28;20361;-82
2023/10/15 11:32:06;;;;;;;9.18;2.67;;;;;;;;;;10475654;28;20032;-82
2023/10/15 11:37:09;;;;;;;6.10;2.33;;;;;;;;;;10471882;28;20055;-82
2023/10/15 11:42:10;;;;;;;5.03;2.00;;;;;;;;;;10488546;28;20123;-80
2023/10/15 11:47:15;;;;;;;7.90;2.20;;;;;;;;;;10487310;28;20484;-81
2023/10/15 11:52:22;;;;;;;7.60;2.40;;;;;;;;;;10475029;28;20045;-82
2023/10/15 11:57:27;;;;;;;11.52;5.28;;;;;;;;;;10482658;28;20282;-81
2023/10/15 12:02:28;;;;;;;6.93;2.90;;;;;;;;;;10481849;28;20035;-82
2023/10/15 12:07:29;;;;;;;10.07;3.65;;;;;;;;;;10485540;28;20036;-81
2023/10/15 12:12:31;;;;;;;7.75;2.67;;;;;;;;;;10480226;28;20131;-81
2023/10/15 12:17:32;;;;;;;9.82;4.03;;;;;;;;;;10474979;28;20132;-80
2023/10/15 12:22:34;;;;;;;9.73;2.20;;;;;;;;;;10480399;28;20364;-82
2023/10/15 12:27:36;;;;;;;14.02;5.63;;;;;;;;;;10483146;28;20056;-82
2023/10/15 12:32:37;;;;;;;8.63;2.97;;;;;;;;;;10479985;28;20670;-81
2023/10/15 12:37:39;;;;;;;7.50;3.13;;;;;;;;;;10486032;28;20031;-82
2023/10/15 12:42:40;;;;;;;4.50;1.38;;;;;;;;;;10478331;28;20484;-81
2023/10/15 12:47:41;;;;;;;7.70;1.55;;;;;;;;;;10462824;28;20676;-82
2023/10/15 12:52:44;;;;;;;6.72;2.38;;;;;;;;;;10483010;28;20041;-82
2023/10/15 12:57:53;;;;;;;5.68;1.50;;;;;;;;;;10475628;28;20075;-81
2023/10/15 13:02:54;;;;;;;4.65;1.10;;;;;;;;;;10461925;28;20032;-82
2023/10/15 13:07:56;;;;;;;5.00;1.23;;;;;;;;;;10469876;28;20039;-84
2023/10/15 13:12:57;;;;;;;7.28;1.40;;;;;;;;;;10478647;28;20044;-81
2023/10/15 13:17:59;;;;;;;5.55;1.45;;;;;;;;;;10468682;28;20029;-81
2023/10/15 13:23:00;;;;;;;5.18;1.63;;;;;;;;;;10464386;28;20055;-81
2023/10/15 13:28:01;;;;;;;4.72;1.80;;;;;;;;;;10476795;28;20784;-82
2023/10/15 13:33:02;;;;;;;4.45;1.38;;;;;;;;;;10482249;28;20082;-83
2023/10/15 13:38:04;;;;;;;3.35;1.42;;;;;;;;;;10473752;28;20178;-81
2023/10/15 13:43:17;;;;;;;8.25;3.30;;;;;;;;;;10475688;28;20101;-81
2023/10/15 13:48:18;;;;;;;13.63;2.60;;;;;;;;;;10470436;28;20105;-82
2023/10/15 13:53:29;;;;;;;13.20;2.78;;;;;;;;;;10478298;28;20542;-80
2023/10/15 13:58:31;;;;;;;8.20;2.55;;;;;;;;;;10471329;28;20637;-80
2023/10/15 14:03:32;;;;;;;7.95;1.70;;;;;;;;;;10472770;28;20760;-80
2023/10/15 14:08:33;;;;;;;6.35;1.63;;;;;;;;;;10469721;28;20043;-82
2023/10/15 14:13:34;;;;;;;11.30;3.95;;;;;;;;;;10477441;28;20439;-80
2023/10/15 14:18:35;;;;;;;8.07;3.63;;;;;;;;;;10465498;28;20048;-80
2023/10/15 14:23:37;;;;;;;5.95;2.45;;;;;;;;;;10477961;28;20155;-82
2023/10/15 14:28:40;;;;;;;8.05;2.88;;;;;;;;;;10479311;28;20029;-83
2023/10/15 14:33:41;;;;;;;5.63;2.08;;;;;;;;;;10466661;28;20043;-81
2023/10/15 14:38:42;;;;;;;10.13;3.70;;;;;;;;;;10464560;28;20509;-83
2023/10/15 14:43:43;;;;;;;9.73;3.70;;;;;;;;;;10482063;28;20060;-82
2023/10/15 14:48:44;;;;;;;19.08;5.93;;;;;;;;;;10459844;28;20108;-80
2023/10/15 14:53:45;;;;;;;20.48;7.00;;;;;;;;;;10474464;28;20063;-81
2023/10/15 14:58:46;;;;;;;19.00;6.90;;;;;;;;;;10488085;28;20040;-83
2023/10/15 15:03:47;;;;;;;12.93;5.90;;;;;;;;;;10477806;28;20039;-81
2023/10/15 15:08:48;;;;;;;14.55;5.57;;;;;;;;;;10482498;28;20040;-81
2023/10/15 15:13:49;;;;;;;13.52;5.75;;;;;;;;;;10454566;28;20047;-80
2023/10/15 15:18:50;;;;;;;14.07;5.25;;;;;;;;;;10466117;28;20123;-80
2023/10/15 15:23:52;;;;;;;11.55;3.67;;;;;;;;;;10478260;28;20032;-81
2023/10/15 15:29:00;;;;;;;6.88;2.80;;;;;;;;;;10477257;28;20032;-81
2023/10/15 15:34:01;;;;;;;11.32;3.95;;;;;;;;;;10472791;28;20032;-81
2023/10/15 15:39:03;;;;;;;7.75;2.83;;;;;;;;;;10478707;28;20039;-81
2023/10/15 15:44:05;;;;;;;11.85;4.38;;;;;;;;;;10474843;28;20056;-79
2023/10/15 15:49:06;;;;;;;10.38;3.92;;;;;;;;;;10471612;28;20035;-80
2023/10/15 15:54:07;;;;;;;9.95;3.03;;;;;;;;;;10476499;28;20043;-80
2023/10/15 15:59:09;;;;;;;5.43;1.75;;;;;;;;;;10480980;28;20028;-80
2023/10/15 16:04:10;;;;;;;7.90;3.25;;;;;;;;;;10478866;28;20029;-80
2023/10/15 16:09:11;;;;;;;10.20;3.67;;;;;;;;;;10472687;28;20029;-80
2023/10/15 16:14:14;;;;;;;8.43;3.23;;;;;;;;;;10473659;28;20249;-80
2023/10/15 16:19:15;;;;;;;10.90;2.80;;;;;;;;;;10481247;28;20024;-83
2023/10/15 16:24:16;;;;;;;8.30;3.03;;;;;;;;;;10477509;28;20036;-81
2023/10/15 16:29:17;;;;;;;6.80;2.80;;;;;;;;;;10475342;28;20029;-81
2023/10/15 16:34:19;;;;;;;12.93;3.53;;;;;;;;;;10479705;28;20036;-81
2023/10/15 16:39:21;;;;;;;11.57;3.80;;;;;;;;;;10465325;28;20070;-80
2023/10/15 16:44:22;;;;;;;9.40;3.40;;;;;;;;;;10474868;28;20507;-81
2023/10/15 16:49:23;;;;;;;9.23;3.03;;;;;;;;;;10484247;28;20036;-81
2023/10/15 16:54:25;;;;;;;9.05;3.90;;;;;;;;;;10472386;28;20041;-81
2023/10/15 16:59:26;;;;;;;8.43;3.10;;;;;;;;;;10471092;28;20040;-80
2023/10/15 17:04:28;;;;;;;6.53;1.87;;;;;;;;;;10483119;28;20025;-81
2023/10/15 17:09:30;;;;;;;8.33;3.27;;;;;;;;;;10471988;28;20106;-80
2023/10/15 17:14:31;;;;;;;6.70;2.57;;;;;;;;;;10477528;28;20040;-81
2023/10/15 17:19:33;;;;;;;6.63;2.10;;;;;;;;;;10477029;28;20728;-80
2023/10/15 17:24:34;;;;;;;4.33;1.93;;;;;;;;;;10469291;28;20066;-80
2023/10/15 17:29:37;;;;;;;5.30;1.93;;;;;;;;;;10469611;28;20441;-81
2023/10/15 17:34:38;;;;;;;6.53;2.07;;;;;;;;;;10472470;28;20043;-80
2023/10/15 17:39:41;;;;;;;6.87;3.40;;;;;;;;;;10470208;28;20464;-80
2023/10/15 17:44:42;;;;;;;48.33;20.43;;;;;;;;;;10480187;28;20084;-78
2023/10/15 17:50:11;;;;;;;37.97;15.63;;;;;;;;;;10474858;28;20037;-78
2023/10/15 17:55:18;;;;;;;42.27;18.07;;;;;;;;;;10474509;28;20722;-80
2023/10/15 18:00:19;;;;;;;19.30;8.80;;;;;;;;;;10474781;28;20581;-80
2023/10/15 18:05:20;;;;;;;23.90;9.80;;;;;;;;;;10479123;28;20305;-81
2023/10/15 18:10:22;;;;;;;15.07;7.17;;;;;;;;;;10450706;28;20119;-82
2023/10/15 18:15:28;;;;;;;10.07;4.63;;;;;;;;;;10456710;28;20455;-81
2023/10/15 18:20:29;;;;;;;17.50;6.30;;;;;;;;;;10487447;22;20056;-82
2023/10/15 18:25:31;;;;;;;20.63;9.70;;;;;;;;;;10471049;28;20399;-82
2023/10/15 18:30:33;;;;;;;23.27;11.90;;;;;;;;;;10475570;28;20404;-81
2023/10/15 18:35:34;;;;;;;20.37;10.53;;;;;;;;;;10438162;28;20054;-82
2023/10/15 18:40:36;;;;;;;16.67;8.60;;;;;;;;;;10449209;28;20459;-82
2023/10/15 18:45:37;;;;;;;12.37;5.87;;;;;;;;;;10456211;28;20048;-82
2023/10/15 18:50:39;;;;;;;10.83;4.87;;;;;;;;;;10438405;28;20025;-81
2023/10/15 18:55:41;;;;;;;7.67;3.43;;;;;;;;;;10429130;28;20033;-83
2023/10/15 19:00:42;;;;;;;8.43;2.97;;;;;;;;;;10431714;28;20076;-81
2023/10/15 19:05:44;;;;;;;11.80;4.80;;;;;;;;;;10455833;28;20035;-81
2023/10/15 19:10:45;;;;;;;12.00;5.03;;;;;;;;;;10461063;28;20666;-82
2023/10/15 19:15:55;;;;;;;11.07;4.43;;;;;;;;;;10448790;28;20059;-81
2023/10/15 19:20:56;;;;;;;12.20;5.77;;;;;;;;;;10450986;28;20111;-81
2023/10/15 19:26:08;;;;;;;18.07;8.23;;;;;;;;;;10451252;28;20036;-81
2023/10/15 19:31:09;;;;;;;17.40;8.97;;;;;;;;;;10506964;22;20484;-82
2023/10/15 19:36:10;;;;;;;18.07;7.67;;;;;;;;;;10504707;28;20090;-81
2023/10/15 19:41:11;;;;;;;13.77;6.77;;;;;;;;;;10498405;28;20029;-81
2023/10/15 19:46:13;;;;;;;12.43;5.50;;;;;;;;;;10493516;28;20111;-81
2023/10/15 19:51:21;;;;;;;9.23;4.17;;;;;;;;;;10494278;28;20150;-81
2023/10/15 19:56:22;;;;;;;8.27;3.63;;;;;;;;;;10502399;28;20123;-81
2023/10/15 20:01:24;;;;;;;5.43;2.80;;;;;;;;;;10502723;28;20053;-81
2023/10/15 20:06:25;;;;;;;6.17;2.80;;;;;;;;;;10505095;28;20028;-81
2023/10/15 20:11:26;;;;;;;5.63;2.90;;;;;;;;;;10494742;28;20112;-83
2023/10/15 20:16:28;;;;;;;7.83;4.00;;;;;;;;;;10506185;28;20067;-82
2023/10/15 20:21:29;;;;;;;8.00;2.87;;;;;;;;;;10497141;28;20017;-80
2023/10/15 20:26:30;;;;;;;9.27;3.60;;;;;;;;;;10501949;28;20108;-81
2023/10/15 20:31:31;;;;;;;11.30;3.87;;;;;;;;;;10463199;28;20049;-81
2023/10/15 20:36:34;;;;;;;7.23;3.37;;;;;;;;;;10458565;28;20063;-79
2023/10/15 20:41:38;;;;;;;10.27;4.77;;;;;;;;;;10460105;28;20523;-81
2023/10/15 20:46:39;;;;;;;20.13;7.93;;;;;;;;;;10469737;28;20059;-81
2023/10/15 20:51:40;;;;;;;21.80;7.47;;;;;;;;;;10451801;28;20346;-80
2023/10/15 20:56:42;;;;;;;17.43;7.00;;;;;;;;;;10460067;28;20040;-81
2023/10/15 21:01:43;;;;;;;17.27;7.87;;;;;;;;;;10461879;28;20036;-80
2023/10/15 21:06:44;;;;;;;27.23;11.77;;;;;;;;;;10459415;28;20076;-80
2023/10/15 21:11:45;;;;;;;23.00;10.73;;;;;;;;;;10476056;28;20038;-80
2023/10/15 21:16:49;;;;;;;22.53;9.53;;;;;;;;;;10471035;28;20036;-81
2023/10/15 21:21:50;;;;;;;27.67;11.33;;;;;;;;;;10469316;28;20036;-81
2023/10/15 21:26:51;;;;;;;26.80;11.57;;;;;;;;;;10475093;28;20416;-80
2023/10/15 21:32:02;;;;;;;45.10;20.40;;;;;;;;;;10478102;28;20075;-81
2023/10/15 21:37:05;;;;;;;41.43;19.43;;;;;;;;;;10467074;28;20040;-81
2023/10/15 21:42:06;;;;;;;36.97;19.80;;;;;;;;;;10465464;28;20047;-81
2023/10/15 21:47:07;;;;;;;30.40;14.37;;;;;;;;;;10461951;28;20029;-82
2023/10/15 21:52:07;;;;;;;31.33;12.43;;;;;;;;;;10473004;28;20038;-81
2023/10/15 21:57:09;;;;;;;27.97;12.83;;;;;;;;;;10461537;28;20037;-81
2023/10/15 22:02:10;;;;;;;31.50;15.03;;;;;;;;;;10481159;28;20139;-82
2023/10/15 22:07:11;;;;;;;34.93;14.13;;;;;;;;;;10490618;28;20077;-81
2023/10/15 22:12:12;;;;;;;21.00;9.37;;;;;;;;;;10475726;28;20063;-81
2023/10/15 22:17:14;;;;;;;25.60;11.23;;;;;;;;;;10453965;28;20430;-81
2023/10/15 22:22:17;;;;;;;18.03;9.03;;;;;;;;;;10514606;22;20155;-82
2023/10/15 22:27:19;;;;;;;13.93;6.17;;;;;;;;;;10513616;28;20020;-81
2023/10/15 22:32:20;;;;;;;14.93;6.97;;;;;;;;;;10508188;28;20024;-82
2023/10/15 22:37:21;;;;;;;14.53;6.60;;;;;;;;;;10510115;28;20067;-82
2023/10/15 22:42:29;;;;;;;16.63;6.80;;;;;;;;;;10520189;28;20132;-81
2023/10/15 22:47:30;;;;;;;13.03;6.47;;;;;;;;;;10503754;28;20020;-81
2023/10/15 22:52:31;;;;;;;9.43;5.43;;;;;;;;;;10498369;28;20036;-81
2023/10/15 22:57:32;;;;;;;10.63;4.97;;;;;;;;;;10505071;28;20032;-81
2023/10/15 23:02:33;;;;;;;9.03;4.63;;;;;;;;;;10510283;28;20036;-81
2023/10/15 23:07:40;;;;;;;10.37;4.77;;;;;;;;;;10511540;28;20044;-81
2023/10/15 23:12:42;;;;;;;11.40;4.47;;;;;;;;;;10499050;28;20024;-81
2023/10/15 23:17:44;;;;;;;10.47;4.70;;;;;;;;;;10503345;28;20032;-82
2023/10/15 23:22:46;;;;;;;6.80;4.30;;;;;;;;;;10490863;28;20523;-81
2023/10/15 23:27:50;;;;;;;12.37;3.77;;;;;;;;;;10490503;28;20115;-81
2023/10/15 23:32:52;;;;;;;8.83;3.70;;;;;;;;;;10490544;28;20555;-81
2023/10/15 23:37:53;;;;;;;9.17;4.10;;;;;;;;;;10490154;28;20468;-81
2023/10/15 23:42:54;;;;;;;11.37;4.67;;;;;;;;;;10498136;28;20028;-81
2023/10/15 23:53:19;;;;;;;;;;;;;;;;;;10489972;28;20045;-81
2023/10/15 23:58:21;;;;;;;11.13;5.00;;;;;;;;;;10506415;28;19912;-81
